Time;durP1;ratioP1;P1;durP2;ratioP2;P2;SDS_P1;SDS_P2;PMS_P1;PMS_P2;Temp;Humidity;BMP_temperature;BMP_pressure;BME280_temperature;BME280_humidity;BME280_pressure;Samples;Min_cycle;Max_cycle;Signal;HPM_P1;HPM_P2
2022/08/08 00:00:46;;;;;;;2.70;2.50;;;16.70;99.90;;;;;;5077060;28;20700;-89
2022/08/08 00:03:19;;;;;;;1.50;1.40;;;16.70;99.90;;;;;;5078073;28;20972;-90
2022/08/08 00:05:53;;;;;;;1.47;1.40;;;16.60;99.90;;;;;;5079291;28;20523;-90
2022/08/08 00:08:31;;;;;;;2.03;1.30;;;16.70;99.90;;;;;;5082975;28;20452;-90
2022/08/08 00:11:08;;;;;;;2.40;1.70;;;16.70;99.90;;;;;;5079550;28;20460;-90
2022/08/08 00:13:42;;;;;;;2.20;2.10;;;16.70;99.90;;;;;;5075051;28;20447;-91
2022/08/08 00:16:14;;;;;;;1.57;1.47;;;16.70;99.90;;;;;;5080402;28;20490;-90
2022/08/08 00:18:49;;;;;;;2.80;2.57;;;16.80;99.90;;;;;;5080045;28;20447;-90
2022/08/08 00:21:23;;;;;;;2.67;2.47;;;16.70;99.90;;;;;;5074447;28;20447;-90
2022/08/08 00:23:52;;;;;;;2.37;2.13;;;16.70;99.90;;;;;;5077880;28;20701;-90
2022/08/08 00:26:25;;;;;;;2.30;2.17;;;16.70;99.90;;;;;;5076455;28;20471;-90
2022/08/08 00:28:59;;;;;;;3.30;3.00;;;16.80;99.90;;;;;;5085546;28;20456;-91
2022/08/08 00:31:34;;;;;;;2.80;2.60;;;16.80;99.90;;;;;;5076763;28;21042;-92
2022/08/08 00:37:07;;;;;;;1.77;1.67;;;16.80;99.90;;;;;;5082244;28;20489;-89
2022/08/08 00:39:44;;;;;;;1.90;1.80;;;16.80;99.90;;;;;;5080343;28;20447;-89
2022/08/08 00:42:43;;;;;;;3.90;2.70;;;16.80;99.90;;;;;;5074424;28;20470;-90
2022/08/08 00:45:47;;;;;;;2.87;2.67;;;16.70;99.90;;;;;;5077069;28;20471;-90
2022/08/08 00:48:44;;;;;;;2.30;1.90;;;16.50;99.90;;;;;;5081127;28;21119;-87
2022/08/08 00:51:55;;;;;;;2.53;2.33;;;16.70;99.90;;;;;;5076123;28;20475;-88
2022/08/08 00:55:06;;;;;;;2.17;1.80;;;16.60;99.90;;;;;;5074472;28;20496;-87
2022/08/08 00:58:25;;;;;;;1.87;1.77;;;16.50;99.90;;;;;;5079914;28;20489;-88
2022/08/08 01:01:02;;;;;;;2.53;2.43;;;16.60;99.90;;;;;;5077733;28;20816;-89
2022/08/08 01:04:11;;;;;;;1.60;1.37;;;16.60;99.90;;;;;;5080608;28;20867;-87
2022/08/08 01:07:17;;;;;;;2.50;1.97;;;16.50;99.90;;;;;;5072259;28;20470;-88
2022/08/08 01:10:21;;;;;;;1.60;1.47;;;16.40;99.90;;;;;;5061196;28;20462;-89
2022/08/08 01:13:28;;;;;;;4.07;2.60;;;16.40;99.90;;;;;;5073797;28;20858;-89
2022/08/08 01:16:15;;;;;;;3.77;2.70;;;16.30;99.90;;;;;;5078826;28;20536;-88
2022/08/08 01:19:22;;;;;;;1.87;1.77;;;16.40;99.90;;;;;;5060712;28;20614;-90
2022/08/08 01:22:45;;;;;;;2.43;2.10;;;16.40;99.90;;;;;;5054018;28;20749;-88
2022/08/08 01:25:46;;;;;;;2.37;2.17;;;16.50;99.90;;;;;;5085472;28;20519;-89
2022/08/08 01:28:30;;;;;;;2.60;2.40;;;16.40;99.90;;;;;;5080165;28;20463;-88
2022/08/08 01:31:30;;;;;;;3.77;2.37;;;16.40;99.90;;;;;;5075566;28;20464;-88
2022/08/08 01:34:41;;;;;;;3.90;2.90;;;16.40;99.90;;;;;;5078893;28;20478;-88
2022/08/08 01:37:44;;;;;;;4.00;3.00;;;16.40;99.90;;;;;;5094137;28;20517;-88
2022/08/08 01:40:23;;;;;;;3.10;2.83;;;16.40;99.90;;;;;;5094438;28;20458;-87
2022/08/08 01:42:54;;;;;;;2.20;2.00;;;16.50;99.90;;;;;;5098191;28;20486;-87
2022/08/08 01:45:50;;;;;;;2.30;2.10;;;16.40;99.90;;;;;;5084979;28;20474;-89
2022/08/08 01:48:28;;;;;;;2.60;2.40;;;16.30;99.90;;;;;;5081930;28;20482;-88
2022/08/08 01:51:29;;;;;;;4.30;2.70;;;16.20;99.90;;;;;;5094665;28;20470;-87
2022/08/08 01:54:05;;;;;;;4.40;3.20;;;16.20;99.90;;;;;;5077795;28;20466;-89
2022/08/08 01:56:43;;;;;;;2.73;2.53;;;16.00;99.90;;;;;;5086027;28;20458;-88
2022/08/08 01:59:30;;;;;;;3.77;2.67;;;16.00;99.90;;;;;;5085481;28;20469;-88
2022/08/08 02:02:07;;;;;;;3.40;2.17;;;16.00;99.90;;;;;;5084470;28;20496;-89
2022/08/08 02:04:41;;;;;;;3.20;3.00;;;15.80;99.90;;;;;;5077006;28;20458;-87
2022/08/08 02:07:18;;;;;;;2.30;2.20;;;15.70;99.90;;;;;;5081034;28;20477;-87
2022/08/08 02:09:58;;;;;;;2.50;2.30;;;15.80;99.90;;;;;;5078684;28;20867;-90
2022/08/08 02:12:30;;;;;;;3.73;3.40;;;15.70;99.90;;;;;;5088970;28;20452;-87
2022/08/08 02:15:04;;;;;;;4.03;3.60;;;15.60;99.90;;;;;;5087306;28;20465;-87
2022/08/08 02:17:40;;;;;;;3.50;3.20;;;15.60;99.90;;;;;;5081431;28;20487;-88
2022/08/08 02:20:12;;;;;;;4.07;3.77;;;15.50;99.90;;;;;;5081485;28;20521;-88
2022/08/08 02:22:52;;;;;;;3.77;2.70;;;15.60;99.90;;;;;;5078929;28;20532;-88
2022/08/08 02:25:24;;;;;;;4.53;3.90;;;15.50;99.90;;;;;;5083453;28;20840;-90
2022/08/08 02:27:57;;;;;;;4.10;3.30;;;15.60;99.90;;;;;;5081674;28;20451;-88
2022/08/08 02:30:37;;;;;;;2.73;2.53;;;15.50;99.90;;;;;;5085179;28;20461;-88
2022/08/08 02:33:34;;;;;;;3.57;3.27;;;15.60;99.90;;;;;;5079704;28;21162;-89
2022/08/08 02:36:22;;;;;;;4.97;4.57;;;15.50;99.90;;;;;;5082900;28;20477;-89
2022/08/08 02:39:12;;;;;;;4.00;3.70;;;15.50;99.90;;;;;;5080175;28;21306;-88
2022/08/08 02:42:09;;;;;;;3.30;3.10;;;15.50;99.90;;;;;;5078736;28;20482;-88
2022/08/08 02:45:07;;;;;;;4.23;3.93;;;15.50;99.90;;;;;;5073669;28;20527;-89
2022/08/08 02:48:07;;;;;;;3.13;2.93;;;15.50;99.90;;;;;;5048909;28;20473;-88
2022/08/08 02:51:12;;;;;;;5.90;3.10;;;15.50;99.90;;;;;;5080349;28;21055;-90
2022/08/08 02:54:14;;;;;;;3.60;3.33;;;15.50;99.90;;;;;;5077568;28;20466;-89
2022/08/08 02:57:19;;;;;;;3.27;2.97;;;15.50;99.90;;;;;;5065763;28;20466;-90
2022/08/08 03:00:24;;;;;;;3.33;3.07;;;15.50;99.90;;;;;;5075955;28;20455;-87
2022/08/08 03:03:57;;;;;;;4.57;3.03;;;15.60;99.90;;;;;;5080707;28;20452;-88
2022/08/08 03:06:48;;;;;;;5.60;4.13;;;15.60;99.90;;;;;;5001325;28;20473;-89
2022/08/08 03:09:56;;;;;;;4.07;3.77;;;15.60;99.90;;;;;;4998334;28;20481;-89
2022/08/08 03:12:57;;;;;;;3.20;3.00;;;15.50;99.90;;;;;;5070871;28;20506;-88
2022/08/08 03:16:10;;;;;;;4.27;3.87;;;15.50;99.90;;;;;;5067558;28;20547;-89
2022/08/08 03:18:50;;;;;;;4.23;3.93;;;15.40;99.90;;;;;;5043633;28;20544;-89
2022/08/08 03:21:17;;;;;;;3.90;3.60;;;15.50;99.90;;;;;;5082679;28;20460;-90
2022/08/08 03:23:46;;;;;;;7.00;3.73;;;15.50;99.90;;;;;;5072336;28;20461;-89
2022/08/08 03:26:15;;;;;;;4.37;3.10;;;15.50;99.90;;;;;;5084081;28;21150;-89
2022/08/08 03:28:46;;;;;;;5.50;3.53;;;15.50;99.90;;;;;;5078821;28;20470;-88
2022/08/08 03:33:58;;;;;;;5.40;3.97;;;15.50;99.90;;;;;;5077580;28;20445;-88
2022/08/08 03:36:25;;;;;;;3.37;3.00;;;15.50;99.90;;;;;;5085760;28;20490;-89
2022/08/08 03:38:54;;;;;;;4.33;3.90;;;15.50;99.90;;;;;;5078195;28;20481;-89
2022/08/08 03:41:21;;;;;;;3.90;3.60;;;15.40;99.90;;;;;;5075031;28;20465;-88
2022/08/08 03:43:56;;;;;;;3.60;3.30;;;15.50;99.90;;;;;;5080945;28;20466;-90
2022/08/08 03:46:23;;;;;;;4.57;4.03;;;15.40;99.90;;;;;;5074539;28;20560;-89
2022/08/08 03:48:55;;;;;;;3.83;3.53;;;15.50;99.90;;;;;;5087977;28;20458;-89
2022/08/08 03:51:23;;;;;;;3.97;3.67;;;15.60;99.90;;;;;;5079375;28;20489;-89
2022/08/08 03:53:51;;;;;;;4.27;3.97;;;15.60;99.90;;;;;;5082042;28;20485;-89
2022/08/08 03:56:21;;;;;;;3.47;3.23;;;15.60;99.90;;;;;;5083605;28;21206;-89
2022/08/08 03:58:49;;;;;;;3.60;3.10;;;15.70;99.90;;;;;;5088623;28;20481;-90
2022/08/08 04:01:17;;;;;;;3.43;3.20;;;15.80;99.90;;;;;;5102736;28;20483;-89
2022/08/08 04:03:46;;;;;;;5.50;4.50;;;15.80;99.90;;;;;;5106186;28;20462;-89
2022/08/08 04:06:14;;;;;;;4.13;3.73;;;15.80;99.90;;;;;;5089523;28;20553;-91
2022/08/08 04:08:42;;;;;;;4.40;2.83;;;15.80;99.90;;;;;;5078531;28;20501;-89
2022/08/08 04:11:09;;;;;;;4.00;3.70;;;15.80;99.90;;;;;;5091469;28;20919;-90
2022/08/08 04:13:38;;;;;;;3.73;3.43;;;15.80;99.90;;;;;;5094669;28;21219;-89
2022/08/08 04:16:05;;;;;;;4.03;3.63;;;15.80;99.90;;;;;;5079369;28;20470;-90
2022/08/08 04:18:32;;;;;;;3.87;3.53;;;15.90;99.90;;;;;;5077487;28;20920;-89
2022/08/08 04:20:59;;;;;;;3.03;2.77;;;16.10;99.90;;;;;;5082653;28;20470;-90
2022/08/08 04:23:26;;;;;;;8.30;5.03;;;16.30;99.90;;;;;;5081441;28;20459;-90
2022/08/08 04:25:53;;;;;;;4.03;3.73;;;16.30;99.90;;;;;;5076889;28;20468;-89
2022/08/08 04:28:20;;;;;;;4.90;4.40;;;16.20;99.90;;;;;;5081595;28;20472;-90
2022/08/08 04:30:49;;;;;;;2.73;2.53;;;16.20;99.90;;;;;;5080835;28;21219;-89
2022/08/08 04:33:16;;;;;;;3.03;2.83;;;16.20;99.90;;;;;;5082843;28;21141;-88
2022/08/08 04:35:43;;;;;;;4.50;4.10;;;16.20;99.90;;;;;;5084293;28;20489;-88
2022/08/08 04:38:10;;;;;;;3.23;3.03;;;16.30;99.90;;;;;;5079963;28;20487;-90
2022/08/08 04:40:37;;;;;;;3.97;3.50;;;16.10;99.90;;;;;;5081313;28;21010;-91
2022/08/08 04:43:04;;;;;;;3.40;3.10;;;16.10;99.90;;;;;;5082944;28;20475;-86
2022/08/08 04:45:32;;;;;;;4.43;4.00;;;16.20;99.90;;;;;;5074999;28;20477;-91
2022/08/08 04:48:00;;;;;;;2.37;2.27;;;16.10;99.90;;;;;;5085893;28;20510;-92
2022/08/08 04:50:28;;;;;;;3.43;3.20;;;16.10;99.90;;;;;;5070500;28;20462;-89
2022/08/08 04:52:56;;;;;;;3.17;2.97;;;16.10;99.90;;;;;;5080380;28;20870;-89
2022/08/08 04:55:23;;;;;;;4.20;3.90;;;16.10;99.90;;;;;;5079133;28;20463;-91
2022/08/08 04:57:50;;;;;;;3.50;3.20;;;15.80;99.90;;;;;;5074345;28;20952;-89
2022/08/08 05:00:18;;;;;;;3.47;3.20;;;15.60;99.90;;;;;;5073562;28;21444;-90
2022/08/08 05:02:45;;;;;;;2.90;2.70;;;15.60;99.90;;;;;;5078634;28;20457;-91
2022/08/08 05:05:14;;;;;;;2.83;2.63;;;15.60;99.90;;;;;;5073554;28;20478;-92
2022/08/08 05:07:41;;;;;;;2.40;2.30;;;15.70;99.90;;;;;;5073907;28;20478;-89
2022/08/08 05:10:08;;;;;;;2.30;2.20;;;15.60;99.90;;;;;;5077169;28;20468;-90
2022/08/08 05:12:35;;;;;;;1.93;1.73;;;15.70;99.90;;;;;;5074948;28;20470;-88
2022/08/08 05:15:02;;;;;;;2.57;2.37;;;15.70;99.90;;;;;;5070203;28;20492;-89
2022/08/08 05:17:29;;;;;;;2.17;2.00;;;15.70;99.90;;;;;;5079570;28;20472;-88
2022/08/08 05:19:56;;;;;;;2.20;2.10;;;15.90;99.90;;;;;;5076246;28;20497;-89
2022/08/08 05:22:26;;;;;;;1.90;1.80;;;15.90;99.90;;;;;;5083175;28;20466;-88
2022/08/08 05:24:53;;;;;;;7.40;2.70;;;16.00;99.90;;;;;;5077666;28;20553;-90
2022/08/08 05:27:20;;;;;;;2.97;2.27;;;16.10;99.90;;;;;;5083427;28;20818;-89
2022/08/08 05:29:47;;;;;;;2.93;2.67;;;16.00;99.90;;;;;;5070645;28;21087;-90
2022/08/08 05:32:14;;;;;;;2.27;2.07;;;16.10;99.90;;;;;;5084503;28;20915;-88
2022/08/08 05:34:46;;;;;;;2.50;2.40;;;16.10;99.90;;;;;;5071821;28;20467;-89
2022/08/08 05:37:17;;;;;;;2.70;1.50;;;16.10;99.90;;;;;;5083199;28;20547;-90
2022/08/08 05:39:49;;;;;;;3.27;3.07;;;16.10;99.90;;;;;;5076978;28;20573;-88
2022/08/08 05:42:17;;;;;;;1.87;1.73;;;16.10;99.90;;;;;;5079612;28;20482;-89
2022/08/08 05:44:47;;;;;;;2.40;2.30;;;16.20;99.90;;;;;;5083735;28;20466;-89
2022/08/08 05:47:15;;;;;;;1.70;1.60;;;16.20;99.90;;;;;;5079328;28;20516;-90
2022/08/08 05:49:43;;;;;;;2.17;2.03;;;16.20;99.90;;;;;;5079356;28;20563;-84
2022/08/08 05:52:10;;;;;;;2.93;2.73;;;16.10;99.90;;;;;;5075269;28;20511;-85
2022/08/08 05:54:38;;;;;;;2.33;2.10;;;16.10;99.90;;;;;;5075996;28;20466;-83
2022/08/08 05:57:11;;;;;;;2.60;2.40;;;16.10;99.90;;;;;;5081526;28;20867;-83
2022/08/08 05:59:41;;;;;;;4.10;3.23;;;16.10;99.90;;;;;;5082649;28;20541;-86
2022/08/08 06:05:05;;;;;;;1.70;1.60;;;16.20;99.90;;;;;;5080135;28;20587;-82
2022/08/08 06:07:33;;;;;;;3.13;2.93;;;16.30;99.90;;;;;;5083726;28;20468;-82
2022/08/08 06:10:02;;;;;;;2.70;2.10;;;16.30;99.90;;;;;;5079720;28;20467;-81
2022/08/08 06:12:35;;;;;;;3.70;2.97;;;16.30;99.90;;;;;;5076551;28;20470;-82
2022/08/08 06:15:04;;;;;;;3.47;3.27;;;16.30;99.90;;;;;;5076485;28;20473;-81
2022/08/08 06:17:33;;;;;;;2.80;2.57;;;16.20;99.90;;;;;;5075650;28;20468;-81
2022/08/08 06:20:01;;;;;;;3.20;3.00;;;16.20;99.90;;;;;;5079903;28;20569;-82
2022/08/08 06:22:29;;;;;;;2.67;2.47;;;16.20;99.90;;;;;;5080484;28;21054;-82
2022/08/08 06:24:56;;;;;;;4.20;3.80;;;16.40;99.90;;;;;;5074576;28;20454;-81
2022/08/08 06:27:34;;;;;;;3.47;3.20;;;16.40;99.90;;;;;;5079103;28;20459;-82
2022/08/08 06:30:05;;;;;;;6.17;5.63;;;16.50;99.90;;;;;;5073503;28;21020;-81
2022/08/08 06:32:32;;;;;;;4.73;4.10;;;16.40;99.90;;;;;;5080954;28;20475;-82
2022/08/08 06:35:01;;;;;;;3.10;2.90;;;16.50;99.90;;;;;;5079442;28;20578;-81
2022/08/08 06:37:31;;;;;;;4.50;4.10;;;16.50;99.90;;;;;;5077933;28;20462;-84
2022/08/08 06:40:05;;;;;;;4.13;3.30;;;16.50;99.90;;;;;;5075941;28;20498;-81
2022/08/08 06:42:36;;;;;;;2.33;2.23;;;16.40;99.90;;;;;;5073599;28;20568;-82
2022/08/08 06:45:05;;;;;;;3.87;3.67;;;16.50;99.90;;;;;;5072013;28;20474;-85
2022/08/08 06:47:34;;;;;;;1.70;1.60;;;16.40;99.90;;;;;;5083406;28;20461;-86
2022/08/08 06:50:02;;;;;;;3.30;3.00;;;16.40;99.90;;;;;;5075071;28;20483;-83
2022/08/08 06:52:29;;;;;;;2.70;2.50;;;16.40;99.90;;;;;;5082334;28;20512;-82
2022/08/08 06:54:57;;;;;;;2.33;2.13;;;16.30;99.90;;;;;;5090874;28;20459;-81
2022/08/08 06:57:25;;;;;;;2.30;2.20;;;16.30;99.90;;;;;;5083392;28;20571;-81
2022/08/08 06:59:53;;;;;;;2.53;1.70;;;16.50;99.90;;;;;;5080467;28;20478;-81
2022/08/08 07:02:24;;;;;;;2.07;1.93;;;16.50;99.90;;;;;;5083815;28;20473;-82
2022/08/08 07:04:55;;;;;;;1.70;1.60;;;16.40;99.90;;;;;;5081558;28;20458;-81
2022/08/08 07:07:31;;;;;;;1.70;1.60;;;16.40;99.90;;;;;;5072404;28;20482;-82
2022/08/08 07:10:05;;;;;;;1.33;1.27;;;16.40;99.90;;;;;;5068597;28;20474;-81
2022/08/08 07:12:39;;;;;;;1.60;1.50;;;16.50;99.90;;;;;;5087354;28;20517;-80
2022/08/08 07:15:08;;;;;;;2.03;1.93;;;16.50;99.90;;;;;;5070813;28;20510;-82
2022/08/08 07:17:46;;;;;;;1.87;1.77;;;16.50;99.90;;;;;;5067354;28;20914;-82
2022/08/08 07:20:18;;;;;;;2.87;2.30;;;16.60;99.90;;;;;;5077861;28;20569;-82
2022/08/08 07:22:55;;;;;;;2.90;2.00;;;16.80;99.90;;;;;;5072287;28;21022;-82
2022/08/08 07:25:25;;;;;;;2.93;1.83;;;16.80;99.90;;;;;;5071532;28;20520;-82
2022/08/08 07:27:57;;;;;;;1.67;1.57;;;16.80;99.90;;;;;;5073573;28;20529;-82
2022/08/08 07:30:24;;;;;;;1.77;1.67;;;16.90;99.90;;;;;;5069945;28;20462;-82
2022/08/08 07:32:53;;;;;;;1.90;1.80;;;16.80;99.90;;;;;;5067829;28;20481;-82
2022/08/08 07:35:21;;;;;;;3.67;2.27;;;16.90;99.90;;;;;;5070345;28;20467;-80
2022/08/08 07:37:50;;;;;;;6.93;1.70;;;16.90;99.90;;;;;;5068058;28;20464;-80
2022/08/08 07:40:17;;;;;;;1.10;1.10;;;16.90;99.90;;;;;;5068414;28;20614;-82
2022/08/08 07:42:46;;;;;;;3.07;2.40;;;17.10;99.90;;;;;;5072249;28;20555;-82
2022/08/08 07:45:13;;;;;;;1.60;1.50;;;17.10;99.90;;;;;;5067663;28;20472;-80
2022/08/08 07:47:41;;;;;;;2.83;2.60;;;17.20;99.90;;;;;;5072796;28;20472;-81
2022/08/08 07:50:09;;;;;;;1.80;1.67;;;17.30;99.90;;;;;;5073976;28;20489;-81
2022/08/08 07:52:38;;;;;;;3.63;1.87;;;17.30;99.90;;;;;;5069882;28;20976;-82
2022/08/08 07:55:10;;;;;;;2.50;1.87;;;17.50;99.90;;;;;;5072135;28;20551;-82
2022/08/08 07:57:47;;;;;;;1.87;1.77;;;17.80;99.90;;;;;;5087191;28;20470;-82
2022/08/08 08:00:16;;;;;;;2.20;2.10;;;17.90;99.90;;;;;;5079151;28;20483;-80
2022/08/08 08:02:47;;;;;;;2.13;2.03;;;18.30;99.90;;;;;;5078988;28;20563;-82
2022/08/08 08:05:20;;;;;;;2.73;2.50;;;18.70;99.90;;;;;;5069653;28;20466;-80
2022/08/08 08:07:53;;;;;;;5.20;1.93;;;18.80;99.90;;;;;;5074123;28;20471;-81
2022/08/08 08:10:21;;;;;;;2.83;2.57;;;19.10;99.90;;;;;;5073743;28;20834;-82
2022/08/08 08:12:53;;;;;;;2.23;2.13;;;19.30;99.90;;;;;;5074229;28;20540;-82
2022/08/08 08:15:25;;;;;;;2.43;2.23;;;19.20;99.90;;;;;;5077895;28;20539;-82
2022/08/08 08:17:58;;;;;;;2.13;1.93;;;19.20;99.90;;;;;;5068846;28;20463;-81
2022/08/08 08:20:29;;;;;;;2.53;2.30;;;19.30;99.90;;;;;;5073670;28;20489;-81
2022/08/08 08:22:56;;;;;;;3.00;2.00;;;19.70;99.90;;;;;;5079124;28;20472;-83
2022/08/08 08:25:23;;;;;;;5.83;1.93;;;19.60;99.90;;;;;;5072695;28;20973;-83
2022/08/08 08:27:50;;;;;;;2.40;2.27;;;19.80;99.90;;;;;;5071054;28;20470;-84
2022/08/08 08:30:17;;;;;;;1.70;1.60;;;19.90;99.90;;;;;;5071592;28;20457;-84
2022/08/08 08:32:44;;;;;;;1.63;1.30;;;19.80;99.90;;;;;;5068695;28;20485;-83
2022/08/08 08:35:12;;;;;;;1.30;1.20;;;19.70;99.90;;;;;;5073747;28;20465;-83
2022/08/08 08:37:40;;;;;;;1.43;1.33;;;19.80;99.90;;;;;;5069368;28;20455;-82
2022/08/08 08:40:08;;;;;;;2.60;2.03;;;20.00;99.90;;;;;;5066106;28;20483;-80
2022/08/08 08:42:36;;;;;;;1.63;1.53;;;19.70;99.90;;;;;;5068122;28;20490;-83
2022/08/08 08:45:04;;;;;;;1.83;1.73;;;20.00;99.90;;;;;;5072744;28;20591;-84
2022/08/08 08:47:32;;;;;;;1.63;1.20;;;20.10;99.90;;;;;;5080472;28;20546;-81
2022/08/08 08:49:59;;;;;;;1.67;1.57;;;20.00;99.90;;;;;;5079691;28;20483;-84
2022/08/08 08:52:26;;;;;;;2.40;1.17;;;20.30;99.90;;;;;;5079296;28;20481;-81
2022/08/08 08:55:00;;;;;;;1.17;1.00;;;20.80;99.90;;;;;;5074998;28;20455;-84
2022/08/08 08:57:28;;;;;;;1.30;1.20;;;20.90;99.90;;;;;;5075254;28;20496;-83
2022/08/08 08:59:59;;;;;;;2.60;1.00;;;21.30;99.90;;;;;;5069215;28;20482;-81
2022/08/08 09:02:27;;;;;;;1.00;1.00;;;21.60;99.90;;;;;;5068414;28;21071;-81
2022/08/08 09:04:59;;;;;;;0.70;0.70;;;21.60;99.90;;;;;;5067265;28;20486;-84
2022/08/08 09:07:30;;;;;;;0.70;0.70;;;21.90;99.90;;;;;;5073725;28;20466;-84
2022/08/08 09:09:59;;;;;;;0.90;0.90;;;21.90;99.40;;;;;;5072773;28;20482;-82
2022/08/08 09:12:27;;;;;;;1.50;1.10;;;21.80;99.30;;;;;;5069524;28;20441;-84
2022/08/08 09:14:57;;;;;;;0.70;0.67;;;21.50;99.30;;;;;;5073081;28;21150;-82
2022/08/08 09:17:24;;;;;;;2.13;0.93;;;21.40;99.90;;;;;;5068119;28;20455;-81
2022/08/08 09:19:53;;;;;;;0.70;0.70;;;21.40;99.40;;;;;;5065832;28;20873;-81
2022/08/08 09:22:21;;;;;;;0.70;0.70;;;21.40;99.70;;;;;;5086660;28;20548;-81
2022/08/08 09:24:49;;;;;;;0.83;0.80;;;21.40;99.10;;;;;;5066902;28;20575;-81
2022/08/08 09:27:19;;;;;;;0.90;0.70;;;21.50;98.40;;;;;;5072284;28;20513;-81
2022/08/08 09:29:51;;;;;;;0.87;0.80;;;21.50;97.20;;;;;;5075823;28;21075;-82
2022/08/08 09:32:34;;;;;;;1.53;0.70;;;21.60;97.00;;;;;;5075391;28;21166;-83
2022/08/08 09:35:03;;;;;;;0.70;0.70;;;22.00;97.20;;;;;;5072103;28;21033;-81
2022/08/08 09:37:33;;;;;;;2.40;0.70;;;21.50;96.70;;;;;;5073971;28;20471;-81
2022/08/08 09:40:04;;;;;;;0.70;0.70;;;21.60;96.50;;;;;;5070871;28;20498;-82
2022/08/08 09:42:35;;;;;;;0.73;0.73;;;21.80;96.70;;;;;;5068340;28;20494;-81
2022/08/08 09:45:08;;;;;;;1.47;0.80;;;21.80;95.70;;;;;;5073355;28;20467;-83
2022/08/08 09:47:37;;;;;;;0.60;0.60;;;21.90;96.30;;;;;;5092156;28;20470;-81
2022/08/08 09:50:07;;;;;;;0.60;0.60;;;22.00;95.60;;;;;;5091082;28;21135;-84
2022/08/08 09:52:35;;;;;;;0.50;0.50;;;22.10;95.50;;;;;;5084595;28;20475;-82
2022/08/08 09:55:03;;;;;;;1.97;0.60;;;22.00;94.20;;;;;;5071489;28;21054;-81
2022/08/08 09:57:36;;;;;;;0.80;0.80;;;22.10;94.00;;;;;;5075212;28;21009;-82
2022/08/08 10:00:07;;;;;;;1.27;0.40;;;21.70;93.00;;;;;;5072560;28;20993;-82
2022/08/08 10:02:36;;;;;;;0.50;0.40;;;21.50;93.80;;;;;;5079603;28;20458;-80
2022/08/08 10:05:10;;;;;;;0.63;0.60;;;21.60;93.00;;;;;;5076550;28;20639;-81
2022/08/08 10:07:37;;;;;;;0.50;0.50;;;21.80;92.50;;;;;;5077905;28;20501;-82
2022/08/08 10:10:05;;;;;;;0.63;0.50;;;21.90;93.40;;;;;;5084029;28;20501;-82
2022/08/08 10:12:38;;;;;;;0.53;0.53;;;21.90;91.80;;;;;;5072100;28;22344;-83
2022/08/08 10:15:08;;;;;;;0.70;0.60;;;22.00;91.50;;;;;;5074462;28;20455;-82
2022/08/08 10:17:45;;;;;;;0.50;0.50;;;21.90;91.60;;;;;;5072505;28;20455;-83
2022/08/08 10:20:13;;;;;;;0.60;0.53;;;21.90;91.60;;;;;;5072518;28;20639;-83
2022/08/08 10:22:48;;;;;;;1.53;0.73;;;21.70;92.50;;;;;;5072464;28;20470;-82
2022/08/08 10:25:21;;;;;;;0.60;0.50;;;21.80;92.20;;;;;;5076517;28;20485;-82
2022/08/08 10:27:53;;;;;;;0.70;0.70;;;21.80;92.70;;;;;;5074514;28;20466;-82
2022/08/08 10:30:23;;;;;;;0.60;0.50;;;21.90;92.10;;;;;;5080726;28;20574;-82
2022/08/08 10:32:52;;;;;;;0.70;0.60;;;22.00;92.30;;;;;;5076082;28;20464;-83
2022/08/08 10:35:21;;;;;;;1.27;0.60;;;22.10;92.60;;;;;;5073318;28;20471;-83
2022/08/08 10:37:54;;;;;;;0.50;0.50;;;22.10;92.30;;;;;;5081981;28;20501;-82
2022/08/08 10:40:31;;;;;;;0.50;0.47;;;22.10;91.10;;;;;;5071563;28;20570;-83
2022/08/08 10:43:01;;;;;;;0.90;0.50;;;22.60;92.70;;;;;;5070953;28;20535;-82
2022/08/08 10:45:28;;;;;;;0.70;0.60;;;22.50;91.00;;;;;;5069896;28;20460;-83
2022/08/08 10:47:57;;;;;;;1.47;0.60;;;22.50;90.60;;;;;;5079730;28;20480;-83
2022/08/08 10:50:32;;;;;;;0.90;0.50;;;22.40;90.70;;;;;;5078077;28;20466;-83
2022/08/08 10:53:04;;;;;;;1.90;0.57;;;22.10;90.90;;;;;;5071755;28;20472;-82
2022/08/08 10:55:32;;;;;;;0.60;0.53;;;22.30;90.80;;;;;;5071490;28;20478;-83
2022/08/08 10:58:04;;;;;;;1.70;0.60;;;22.90;92.10;;;;;;5074257;28;20468;-84
2022/08/08 11:00:32;;;;;;;0.90;0.80;;;23.20;90.20;;;;;;5071501;28;20533;-81
2022/08/08 11:03:11;;;;;;;0.70;0.70;;;23.00;90.50;;;;;;5078163;28;20479;-83
2022/08/08 11:05:43;;;;;;;0.60;0.50;;;22.90;88.50;;;;;;5075021;28;20463;-80
2022/08/08 11:08:20;;;;;;;0.73;0.50;;;23.30;90.10;;;;;;5068100;28;20576;-83
2022/08/08 11:10:47;;;;;;;0.63;0.50;;;23.80;88.10;;;;;;5071841;28;20468;-81
2022/08/08 11:13:21;;;;;;;1.27;0.60;;;24.30;90.20;;;;;;5065265;28;20475;-83
2022/08/08 11:15:49;;;;;;;0.60;0.60;;;24.70;84.50;;;;;;5076077;28;20471;-81
2022/08/08 11:18:18;;;;;;;0.60;0.60;;;24.90;83.50;;;;;;5074568;28;20559;-82
2022/08/08 11:20:45;;;;;;;0.60;0.60;;;25.30;81.80;;;;;;5071252;28;20533;-81
2022/08/08 11:23:15;;;;;;;1.23;0.70;;;25.40;81.50;;;;;;5084536;28;20462;-83
2022/08/08 11:25:43;;;;;;;1.27;1.17;;;25.10;78.40;;;;;;5074351;28;20568;-81
2022/08/08 11:28:15;;;;;;;1.27;1.00;;;25.20;79.80;;;;;;5075289;28;20465;-80
2022/08/08 11:33:27;;;;;;;1.03;0.63;;;25.20;80.20;;;;;;5064485;28;20462;-83
2022/08/08 11:35:56;;;;;;;1.20;0.70;;;25.20;81.00;;;;;;5064245;28;20461;-84
2022/08/08 11:38:23;;;;;;;0.60;0.60;;;25.10;79.60;;;;;;5067946;28;20466;-84
2022/08/08 11:40:53;;;;;;;0.50;0.50;;;25.10;77.50;;;;;;5066501;28;20628;-85
2022/08/08 11:43:21;;;;;;;1.33;0.60;;;25.40;78.20;;;;;;5072477;28;20486;-84
2022/08/08 11:45:52;;;;;;;0.87;0.63;;;25.70;77.70;;;;;;5068498;28;20456;-84
2022/08/08 11:48:20;;;;;;;2.87;0.50;;;26.00;74.30;;;;;;5069812;28;20640;-83
2022/08/08 11:50:49;;;;;;;0.70;0.70;;;25.80;74.50;;;;;;5072402;28;21208;-83
2022/08/08 11:53:17;;;;;;;0.70;0.60;;;25.30;75.30;;;;;;5074253;28;20549;-82
2022/08/08 11:55:48;;;;;;;1.27;0.70;;;25.00;74.30;;;;;;5067736;28;20466;-80
2022/08/08 11:58:15;;;;;;;0.97;0.60;;;24.80;72.20;;;;;;5068165;28;20560;-81
2022/08/08 12:00:46;;;;;;;0.70;0.60;;;24.90;73.80;;;;;;5067535;28;21161;-80
2022/08/08 12:03:23;;;;;;;1.53;0.50;;;24.40;75.90;;;;;;5065502;28;21370;-80
2022/08/08 12:05:51;;;;;;;1.47;0.80;;;24.20;76.80;;;;;;5069672;28;20567;-81
2022/08/08 12:08:31;;;;;;;1.57;0.70;;;23.90;78.40;;;;;;5078987;28;21029;-80
2022/08/08 12:11:02;;;;;;;0.67;0.67;;;23.90;80.20;;;;;;5075630;28;20507;-82
2022/08/08 12:13:29;;;;;;;0.63;0.60;;;24.10;79.70;;;;;;5076343;28;20463;-82
2022/08/08 12:16:07;;;;;;;0.60;0.60;;;24.40;82.00;;;;;;5074636;28;20471;-83
2022/08/08 12:18:44;;;;;;;1.57;0.70;;;24.20;79.10;;;;;;5072437;28;20588;-83
2022/08/08 12:21:21;;;;;;;0.50;0.50;;;24.20;76.70;;;;;;5078615;28;20482;-81
2022/08/08 12:23:48;;;;;;;0.50;0.50;;;24.20;75.80;;;;;;5073006;28;20947;-83
2022/08/08 12:26:18;;;;;;;0.60;0.60;;;24.40;74.50;;;;;;5069617;28;20486;-83
2022/08/08 12:28:54;;;;;;;0.60;0.60;;;24.90;75.90;;;;;;5080974;28;20458;-83
2022/08/08 12:31:33;;;;;;;0.60;0.60;;;25.30;80.10;;;;;;5069308;28;20491;-83
2022/08/08 12:34:01;;;;;;;2.07;0.60;;;25.00;76.40;;;;;;5071094;28;20458;-84
2022/08/08 12:36:39;;;;;;;0.93;0.60;;;25.40;71.70;;;;;;5073004;28;20460;-83
2022/08/08 12:39:07;;;;;;;0.60;0.60;;;25.30;69.60;;;;;;5079268;28;21873;-83
2022/08/08 12:41:35;;;;;;;0.97;0.70;;;25.30;70.90;;;;;;5088316;28;20511;-82
2022/08/08 12:44:07;;;;;;;2.90;0.60;;;25.20;70.30;;;;;;5086487;28;21175;-82
2022/08/08 12:46:35;;;;;;;1.80;0.50;;;25.30;69.50;;;;;;5075285;28;20463;-83
2022/08/08 12:49:05;;;;;;;0.80;0.60;;;24.90;72.70;;;;;;5073503;28;20458;-82
2022/08/08 12:51:43;;;;;;;0.80;0.77;;;24.80;73.00;;;;;;5075902;28;20611;-83
2022/08/08 12:54:21;;;;;;;0.50;0.50;;;25.00;74.80;;;;;;5077046;28;20458;-81
2022/08/08 12:56:48;;;;;;;2.20;0.50;;;25.00;72.00;;;;;;5073862;28;20544;-83
2022/08/08 12:59:17;;;;;;;0.50;0.50;;;25.00;73.00;;;;;;5073997;28;21114;-82
2022/08/08 13:01:51;;;;;;;0.70;0.60;;;24.90;72.00;;;;;;5070803;28;21212;-82
2022/08/08 13:04:21;;;;;;;1.00;0.63;;;24.70;74.70;;;;;;5068278;28;20463;-82
2022/08/08 13:06:56;;;;;;;0.80;0.50;;;24.60;69.50;;;;;;5067868;28;20975;-83
2022/08/08 13:09:35;;;;;;;0.80;0.60;;;24.50;69.60;;;;;;5069270;28;20508;-82
2022/08/08 13:12:12;;;;;;;0.50;0.50;;;24.30;72.70;;;;;;5071763;28;20474;-84
2022/08/08 13:14:43;;;;;;;0.50;0.50;;;24.10;73.20;;;;;;5074076;28;20456;-82
2022/08/08 13:17:10;;;;;;;2.53;0.73;;;24.50;73.60;;;;;;5067162;28;20462;-82
2022/08/08 13:19:39;;;;;;;2.63;0.60;;;24.40;70.30;;;;;;5071837;28;21174;-82
2022/08/08 13:22:07;;;;;;;1.07;0.50;;;24.40;66.00;;;;;;5074221;28;20490;-82
2022/08/08 13:24:38;;;;;;;0.50;0.50;;;24.30;69.20;;;;;;5080939;28;20477;-87
2022/08/08 13:27:06;;;;;;;0.80;0.80;;;24.50;69.10;;;;;;5074173;28;20468;-87
2022/08/08 13:29:34;;;;;;;0.80;0.80;;;24.50;68.50;;;;;;5070970;28;20459;-81
2022/08/08 13:32:03;;;;;;;2.20;0.50;;;24.30;69.10;;;;;;5072042;28;20493;-83
2022/08/08 13:34:36;;;;;;;1.80;0.50;;;24.40;69.30;;;;;;5074135;28;20827;-84